Time;durP1;ratioP1;P1;durP2;ratioP2;P2;SDS_P1;SDS_P2;PMS_P1;PMS_P2;Temp;Humidity;BMP_temperature;BMP_pressure;BME280_temperature;BME280_humidity;BME280_pressure;Samples;Min_cycle;Max_cycle;Signal;HPM_P1;HPM_P2
2023/04/30 00:00:19;;;;;;;6.78;5.30;;;;;;;11.49;51.26;93539.13;4977481;28;20157;-78
2023/04/30 00:02:44;;;;;;;7.10;5.50;;;;;;;11.57;51.27;93556.97;4978524;28;20042;-78
2023/04/30 00:05:10;;;;;;;8.43;5.28;;;;;;;11.28;51.12;93513.63;4973729;28;20060;-79
2023/04/30 00:07:35;;;;;;;7.13;5.72;;;;;;;11.37;51.36;93540.97;4977140;28;20064;-79
2023/04/30 00:10:01;;;;;;;9.30;5.18;;;;;;;11.42;51.50;93556.75;4977486;28;20081;-79
2023/04/30 00:12:27;;;;;;;6.50;5.35;;;;;;;11.49;51.17;93557.03;4971122;28;20037;-79
2023/04/30 00:14:55;;;;;;;9.40;6.10;;;;;;;11.36;51.53;93542.84;4975624;28;20034;-80
2023/04/30 00:17:20;;;;;;;9.32;6.00;;;;;;;11.41;51.09;93560.50;4978706;28;20120;-78
2023/04/30 00:19:46;;;;;;;7.35;5.50;;;;;;;11.26;51.34;93537.91;4974013;28;20087;-80
2023/04/30 00:22:11;;;;;;;7.78;6.13;;;;;;;11.40;51.40;93553.63;4981834;28;20017;-79
2023/04/30 00:24:36;;;;;;;8.63;5.85;;;;;;;11.23;51.11;93533.22;4978753;28;20128;-79
2023/04/30 00:27:05;;;;;;;8.65;6.28;;;;;;;11.16;51.61;93531.06;4971747;28;20419;-77
2023/04/30 00:29:30;;;;;;;8.95;5.60;;;;;;;11.32;51.36;93549.91;4977581;28;20054;-78
2023/04/30 00:31:56;;;;;;;8.50;5.55;;;;;;;11.21;51.17;93534.63;4970047;28;20026;-78
2023/04/30 00:34:21;;;;;;;11.60;5.10;;;;;;;11.24;51.69;93555.31;4982677;28;20073;-77
2023/04/30 00:36:46;;;;;;;8.68;5.68;;;;;;;11.17;51.48;93556.59;4983614;28;20152;-79
2023/04/30 00:39:12;;;;;;;7.15;4.55;;;;;;;11.15;50.98;93548.13;4983332;28;20509;-78
2023/04/30 00:41:38;;;;;;;6.97;4.90;;;;;;;11.22;51.22;93549.50;4981038;28;20062;-78
2023/04/30 00:44:03;;;;;;;6.88;5.10;;;;;;;11.11;51.09;93535.78;4980743;28;20035;-79
2023/04/30 00:46:29;;;;;;;6.07;4.95;;;;;;;11.21;50.83;93551.41;4981946;28;20025;-80
2023/04/30 00:48:55;;;;;;;7.05;4.80;;;;;;;11.22;51.04;93550.28;4979328;28;20398;-79
2023/04/30 00:51:20;;;;;;;7.68;4.75;;;;;;;11.18;51.28;93549.38;4977200;28;20034;-80
2023/04/30 00:53:45;;;;;;;10.10;4.70;;;;;;;11.05;51.58;93547.75;4979058;28;20037;-80
2023/04/30 00:56:15;;;;;;;6.53;4.38;;;;;;;11.02;51.56;93549.16;4977604;28;20044;-79
2023/04/30 00:58:40;;;;;;;8.75;4.80;;;;;;;11.01;51.44;93547.59;4978767;28;20162;-79
2023/04/30 01:01:06;;;;;;;6.07;4.05;;;;;;;11.04;51.32;93551.50;4975063;28;20034;-79
2023/04/30 01:03:31;;;;;;;8.45;3.97;;;;;;;10.81;51.57;93520.97;4978578;28;20401;-79
2023/04/30 01:05:57;;;;;;;7.38;4.13;;;;;;;10.78;51.61;93529.56;4977144;28;20038;-76
2023/04/30 01:08:23;;;;;;;7.90;4.20;;;;;;;10.66;51.49;93509.75;4978506;28;20405;-79
2023/04/30 01:11:16;;;;;;;6.10;4.55;;;;;;;10.92;51.33;93544.19;4975605;28;20033;-79
2023/04/30 01:14:03;;;;;;;5.22;4.00;;;;;;;10.90;50.92;93546.41;4989673;28;21142;-79
2023/04/30 01:16:33;;;;;;;5.72;3.83;;;;;;;10.81;50.96;93532.34;4974454;28;20225;-79
2023/04/30 01:19:16;;;;;;;5.97;4.35;;;;;;;10.77;50.74;93535.97;4977492;28;20061;-78
2023/04/30 01:21:42;;;;;;;6.53;4.38;;;;;;;10.74;50.82;93542.72;4977279;28;20047;-79
2023/04/30 01:25:18;;;;;;;9.40;4.22;;;;;;;10.75;50.91;93554.94;4974344;28;20782;-79
2023/04/30 01:28:02;;;;;;;10.90;4.35;;;;;;;10.76;50.89;93545.84;4927369;28;20047;-80
2023/04/30 01:30:30;;;;;;;8.90;4.00;;;;;;;10.51;51.04;93520.16;4920631;28;20043;-78
2023/04/30 01:32:56;;;;;;;7.32;4.57;;;;;;;10.21;51.32;93476.75;4956778;28;20035;-79
2023/04/30 01:35:35;;;;;;;6.90;4.97;;;;;;;10.61;50.93;93547.16;4978424;28;20031;-78
2023/04/30 01:38:18;;;;;;;5.75;4.00;;;;;;;10.65;51.17;93549.97;4976064;28;20026;-79
2023/04/30 01:40:55;;;;;;;7.78;5.20;;;;;;;10.63;51.24;93544.97;4982796;28;20018;-79
2023/04/30 01:43:37;;;;;;;7.97;4.63;;;;;;;10.64;50.90;93545.75;4982396;28;20026;-78
2023/04/30 01:46:22;;;;;;;9.18;4.93;;;;;;;10.67;51.44;93547.75;4977620;28;20030;-79
2023/04/30 01:49:07;;;;;;;10.05;5.00;;;;;;;10.73;51.17;93551.81;4975894;28;20046;-79
2023/04/30 01:51:42;;;;;;;5.82;4.68;;;;;;;10.67;51.39;93547.75;4978524;28;20042;-79
2023/04/30 01:54:34;;;;;;;9.32;6.15;;;;;;;10.60;51.40;93542.16;4976106;28;20034;-79
2023/04/30 01:57:06;;;;;;;8.40;4.80;;;;;;;10.53;51.61;93531.22;4992506;28;20030;-79
2023/04/30 01:59:34;;;;;;;6.60;4.72;;;;;;;10.68;51.64;93544.00;4976585;28;20441;-79
2023/04/30 02:02:00;;;;;;;9.45;5.05;;;;;;;10.67;51.36;93545.09;4977428;28;20718;-79
2023/04/30 02:04:25;;;;;;;6.22;5.28;;;;;;;10.56;51.64;93533.28;4977082;28;20124;-79
2023/04/30 02:06:51;;;;;;;14.95;5.80;;;;;;;10.59;52.03;93532.63;4976191;28;20893;-79
2023/04/30 02:09:17;;;;;;;14.38;5.45;;;;;;;10.60;51.94;93526.22;4973249;28;20100;-79
2023/04/30 02:11:43;;;;;;;9.00;5.43;;;;;;;10.67;52.16;93547.75;4975920;28;20508;-79
2023/04/30 02:14:08;;;;;;;7.95;5.47;;;;;;;10.63;52.36;93546.84;4964460;28;20073;-79
2023/04/30 02:16:33;;;;;;;9.13;5.28;;;;;;;10.71;52.19;93543.34;4975591;28;20396;-79
2023/04/30 02:18:59;;;;;;;9.18;5.38;;;;;;;10.58;52.43;93529.19;4976060;28;20382;-79
2023/04/30 02:21:25;;;;;;;7.82;5.78;;;;;;;10.31;52.79;93501.13;4981469;28;20046;-78
2023/04/30 02:23:51;;;;;;;7.13;4.97;;;;;;;10.32;52.76;93500.00;4994146;28;20448;-79
2023/04/30 02:26:16;;;;;;;8.77;5.60;;;;;;;10.58;52.42;93539.03;4978683;28;20414;-80
2023/04/30 02:28:42;;;;;;;6.22;4.72;;;;;;;10.30;52.72;93496.13;4981923;28;20034;-80
2023/04/30 02:31:07;;;;;;;9.07;5.35;;;;;;;10.57;52.80;93540.13;4979443;28;20610;-79
2023/04/30 02:33:32;;;;;;;8.13;5.28;;;;;;;10.53;52.76;93528.56;4999173;28;20342;-78
2023/04/30 02:35:59;;;;;;;8.95;5.40;;;;;;;10.57;52.68;93542.78;4978163;28;20049;-79
2023/04/30 02:38:25;;;;;;;9.43;4.97;;;;;;;10.58;52.94;93539.03;4981126;28;20054;-79
2023/04/30 02:40:50;;;;;;;8.23;5.80;;;;;;;10.59;53.19;93540.59;4982189;28;20141;-79
2023/04/30 02:43:15;;;;;;;7.35;4.70;;;;;;;10.58;53.19;93539.81;4986424;28;20030;-78
2023/04/30 02:45:41;;;;;;;7.70;5.40;;;;;;;10.66;53.38;93546.97;4985915;28;20040;-77
2023/04/30 02:48:06;;;;;;;10.20;6.05;;;;;;;10.60;53.30;93536.84;4986518;28;20113;-78
2023/04/30 02:50:31;;;;;;;8.23;5.95;;;;;;;10.57;53.54;93526.84;4984669;28;20656;-79
2023/04/30 02:52:57;;;;;;;9.43;5.55;;;;;;;10.61;53.70;93536.50;4983422;28;20022;-79
2023/04/30 02:55:22;;;;;;;7.45;6.18;;;;;;;10.60;53.70;93539.50;4983675;28;20030;-80
2023/04/30 02:57:48;;;;;;;9.07;5.88;;;;;;;10.76;53.86;93551.16;4981354;28;20037;-80
2023/04/30 03:00:13;;;;;;;9.15;5.28;;;;;;;10.73;53.68;93530.53;4981036;28;20532;-80
2023/04/30 03:02:39;;;;;;;9.05;5.80;;;;;;;10.73;54.04;93539.28;4977522;28;20035;-78
2023/04/30 03:05:05;;;;;;;8.30;5.90;;;;;;;10.73;54.16;93528.66;4979132;28;20088;-79
2023/04/30 03:07:30;;;;;;;12.32;6.25;;;;;;;10.79;54.05;93541.78;4978712;28;20532;-79
2023/04/30 03:09:55;;;;;;;5.95;5.35;;;;;;;10.78;54.40;93542.88;4978451;28;20548;-78
2023/04/30 03:12:21;;;;;;;8.48;5.95;;;;;;;10.79;54.77;93547.09;4977255;28;20034;-78
2023/04/30 03:14:46;;;;;;;7.38;5.97;;;;;;;10.89;54.45;93552.06;4935189;28;1261044;-79
2023/04/30 03:17:11;;;;;;;7.30;6.07;;;;;;;10.86;54.67;93540.16;4979618;28;20153;-79
2023/04/30 03:19:37;;;;;;;8.55;6.05;;;;;;;10.93;54.55;93567.06;4979206;28;20027;-79
2023/04/30 03:22:02;;;;;;;8.32;5.80;;;;;;;11.10;54.78;93569.63;4979914;28;20046;-79
2023/04/30 03:24:28;;;;;;;8.57;6.05;;;;;;;11.06;54.50;93576.69;4980319;28;20027;-79
2023/04/30 03:26:53;;;;;;;13.13;6.93;;;;;;;10.97;54.47;93557.31;4979845;28;20037;-80
2023/04/30 03:29:18;;;;;;;10.07;6.68;;;;;;;11.04;55.10;93570.13;4978510;28;20038;-79
2023/04/30 03:31:44;;;;;;;9.20;6.63;;;;;;;11.04;55.09;93552.28;4980173;28;20027;-79
2023/04/30 03:34:09;;;;;;;9.07;6.80;;;;;;;11.01;55.30;93552.13;4980648;28;20105;-79
2023/04/30 03:36:35;;;;;;;10.90;7.43;;;;;;;11.07;55.34;93564.94;4980228;28;20077;-75
2023/04/30 03:39:01;;;;;;;9.70;7.68;;;;;;;11.09;54.84;93575.28;4981380;28;20125;-79
2023/04/30 03:41:26;;;;;;;13.30;7.32;;;;;;;11.05;55.08;93559.16;4980175;28;20039;-79
2023/04/30 03:43:51;;;;;;;14.45;7.38;;;;;;;11.02;54.89;93564.34;4979402;28;20041;-78
2023/04/30 03:46:17;;;;;;;9.73;6.55;;;;;;;11.29;55.25;93584.41;4980933;28;20044;-79
2023/04/30 03:48:43;;;;;;;12.23;7.70;;;;;;;11.11;55.20;93563.19;4988172;28;20039;-79
2023/04/30 03:51:08;;;;;;;10.30;7.13;;;;;;;11.18;55.47;93589.31;4984666;28;20034;-79
2023/04/30 03:53:34;;;;;;;12.45;8.00;;;;;;;11.25;55.30;93576.25;4979948;28;20038;-79
2023/04/30 03:56:00;;;;;;;10.88;7.63;;;;;;;11.35;55.86;93594.53;4981366;28;20022;-78
2023/04/30 03:58:25;;;;;;;9.10;7.55;;;;;;;11.37;56.40;93602.97;4979901;28;20026;-79
2023/04/30 04:00:51;;;;;;;13.90;7.55;;;;;;;11.28;55.52;93588.16;4981011;28;20026;-77
2023/04/30 04:03:17;;;;;;;10.35;7.97;;;;;;;11.12;55.71;93572.75;4979542;28;20070;-80
2023/04/30 04:05:42;;;;;;;10.18;8.60;;;;;;;11.15;55.55;93581.94;4994732;28;20038;-80
2023/04/30 04:08:08;;;;;;;12.32;7.72;;;;;;;11.32;55.76;93595.19;4978337;28;20508;-79
2023/04/30 04:10:34;;;;;;;10.80;8.18;;;;;;;11.28;55.85;93588.16;4979435;28;20042;-79
2023/04/30 04:13:00;;;;;;;10.90;7.90;;;;;;;11.18;55.99;93584.00;4977194;28;20050;-78
2023/04/30 04:15:25;;;;;;;10.50;7.88;;;;;;;11.50;55.82;93603.84;4979497;28;20049;-79
2023/04/30 04:17:51;;;;;;;10.40;8.20;;;;;;;11.44;55.33;93600.56;4991989;28;20077;-80
2023/04/30 04:20:16;;;;;;;14.02;8.50;;;;;;;11.30;55.22;93586.72;4979753;28;20034;-79
2023/04/30 04:22:42;;;;;;;11.77;8.32;;;;;;;11.29;55.43;93579.88;4977053;28;20019;-79
2023/04/30 04:25:08;;;;;;;13.35;9.65;;;;;;;11.47;54.61;93593.84;4979664;28;20039;-78
2023/04/30 04:27:34;;;;;;;14.13;8.65;;;;;;;11.54;53.96;93599.47;4979747;28;20035;-76
2023/04/30 04:30:03;;;;;;;13.52;8.75;;;;;;;11.58;53.60;93603.03;4979696;28;20029;-79
2023/04/30 04:32:29;;;;;;;12.50;10.13;;;;;;;11.55;53.44;93595.69;4977476;28;20046;-78
2023/04/30 04:34:55;;;;;;;15.88;10.73;;;;;;;11.49;54.04;93594.31;4969780;28;20032;-80
2023/04/30 04:37:21;;;;;;;18.40;12.32;;;;;;;11.33;53.84;93611.94;4981235;28;20045;-80
2023/04/30 04:39:47;;;;;;;20.25;10.40;;;;;;;11.47;53.56;93581.31;4979783;28;20523;-79
2023/04/30 04:42:15;;;;;;;17.00;11.48;;;;;;;11.40;53.90;93593.56;4976263;28;20038;-78
2023/04/30 04:44:41;;;;;;;18.20;12.00;;;;;;;11.79;52.85;93606.47;4991940;28;20035;-79
2023/04/30 04:47:07;;;;;;;17.15;12.27;;;;;;;11.76;52.74;93604.47;4978677;28;20370;-80
2023/04/30 04:49:32;;;;;;;18.40;11.80;;;;;;;11.65;53.19;93618.50;4981974;28;20026;-80
2023/04/30 04:51:58;;;;;;;19.17;12.45;;;;;;;11.76;52.84;93617.78;4985418;28;20042;-79
2023/04/30 04:54:23;;;;;;;17.90;12.88;;;;;;;11.72;52.49;93608.91;4988921;28;20486;-80
2023/04/30 04:56:48;;;;;;;19.40;12.40;;;;;;;11.89;52.89;93622.06;4982357;28;20045;-79
2023/04/30 04:59:16;;;;;;;25.13;14.70;;;;;;;11.69;52.53;93596.22;4981489;28;20107;-77
2023/04/30 05:01:41;;;;;;;23.70;14.02;;;;;;;11.94;52.15;93616.56;4979545;28;20061;-80
2023/04/30 05:04:08;;;;;;;20.02;13.02;;;;;;;11.68;52.67;93615.97;4977997;28;20054;-79
2023/04/30 05:06:35;;;;;;;22.67;13.90;;;;;;;11.70;52.96;93602.31;4977997;28;20054;-78
2023/04/30 05:09:01;;;;;;;18.45;13.00;;;;;;;11.72;53.17;93613.44;4978228;28;20525;-79
2023/04/30 05:11:27;;;;;;;19.52;13.00;;;;;;;11.26;54.38;93616.97;4979747;28;20113;-79
2023/04/30 05:13:52;;;;;;;19.27;12.57;;;;;;;11.31;54.91;93628.22;4976057;28;20046;-78
2023/04/30 05:16:17;;;;;;;18.80;13.43;;;;;;;11.07;55.39;93630.69;4979514;28;20092;-79
2023/04/30 05:18:43;;;;;;;19.92;13.63;;;;;;;11.36;54.73;93619.28;4977541;28;20053;-79
2023/04/30 05:21:08;;;;;;;21.92;12.93;;;;;;;11.73;54.58;93620.34;4978476;28;20049;-79
2023/04/30 05:23:33;;;;;;;16.92;12.07;;;;;;;11.77;54.12;93610.59;4979440;28;20554;-79
2023/04/30 05:25:59;;;;;;;19.45;13.77;;;;;;;11.46;54.26;93626.88;4977305;28;20129;-79
2023/04/30 05:28:25;;;;;;;17.58;11.73;;;;;;;11.70;53.21;93636.94;4978463;28;20034;-80
2023/04/30 05:30:50;;;;;;;20.75;12.80;;;;;;;11.43;53.34;93622.22;4978720;28;20369;-78
2023/04/30 05:33:16;;;;;;;26.92;14.30;;;;;;;11.49;53.36;93620.94;4979062;28;20050;-79
2023/04/30 05:35:41;;;;;;;21.60;13.13;;;;;;;11.87;52.87;93632.31;4980038;28;20093;-79
2023/04/30 05:38:06;;;;;;;22.17;12.60;;;;;;;11.92;52.60;93608.13;4978928;28;20048;-80
2023/04/30 05:40:32;;;;;;;20.77;13.02;;;;;;;11.65;53.11;93627.25;4979998;28;20401;-79
2023/04/30 05:42:57;;;;;;;19.75;13.80;;;;;;;11.91;53.57;93627.09;4978999;28;20133;-78
2023/04/30 05:45:23;;;;;;;16.70;13.60;;;;;;;11.74;53.76;93632.53;4975376;28;20570;-79
2023/04/30 05:47:48;;;;;;;21.48;14.80;;;;;;;11.34;54.99;93624.16;4977537;28;20030;-79
2023/04/30 05:50:14;;;;;;;18.83;13.18;;;;;;;11.64;54.30;93628.38;4978439;28;20027;-79
2023/04/30 05:52:39;;;;;;;23.35;14.43;;;;;;;11.09;55.99;93607.22;4976951;28;20058;-79
2023/04/30 05:55:05;;;;;;;24.13;14.23;;;;;;;11.51;55.34;93624.84;4985222;28;20125;-80
2023/04/30 05:57:31;;;;;;;21.75;14.73;;;;;;;11.51;56.58;93629.41;4988458;28;20041;-78
2023/04/30 05:59:56;;;;;;;21.40;14.98;;;;;;;11.52;56.11;93636.28;4976551;28;20489;-79
2023/04/30 06:02:22;;;;;;;22.20;15.07;;;;;;;11.10;55.84;93604.22;4979105;28;20618;-76
2023/04/30 06:04:47;;;;;;;25.15;14.82;;;;;;;11.35;55.79;93647.78;4977090;28;20030;-80
2023/04/30 06:07:12;;;;;;;20.02;15.77;;;;;;;11.24;55.87;93597.91;4979811;28;20021;-77
2023/04/30 06:09:38;;;;;;;21.50;13.93;;;;;;;11.34;56.66;93634.81;4975946;28;20041;-79
2023/04/30 06:12:04;;;;;;;22.40;14.95;;;;;;;11.65;55.12;93623.81;4977077;28;20114;-77
2023/04/30 06:14:29;;;;;;;22.67;15.15;;;;;;;11.77;54.69;93616.69;4976772;28;20053;-79
2023/04/30 06:16:55;;;;;;;20.63;14.93;;;;;;;12.03;54.17;93646.59;4979750;28;20693;-80
2023/04/30 06:19:20;;;;;;;18.63;14.65;;;;;;;11.99;54.58;93629.69;4977307;28;20464;-79
2023/04/30 06:21:45;;;;;;;18.50;15.23;;;;;;;12.19;54.39;93643.31;4976764;28;20042;-79
2023/04/30 06:24:11;;;;;;;21.70;14.77;;;;;;;12.34;53.79;93642.72;4978512;28;20267;-78
2023/04/30 06:26:36;;;;;;;18.98;14.23;;;;;;;12.02;54.75;93646.94;4975226;28;20047;-78
2023/04/30 06:29:01;;;;;;;19.20;14.77;;;;;;;11.43;56.09;93654.16;4979862;28;20405;-78
2023/04/30 06:31:27;;;;;;;21.25;14.23;;;;;;;11.22;56.05;93632.03;4976736;28;20104;-78
2023/04/30 06:33:52;;;;;;;17.80;14.13;;;;;;;11.51;55.89;93656.03;4978555;28;20102;-80
2023/04/30 06:36:18;;;;;;;20.42;13.45;;;;;;;11.80;54.72;93637.34;4977726;28;20093;-80
2023/04/30 06:38:45;;;;;;;20.92;13.32;;;;;;;11.60;55.29;93646.88;4978043;28;20486;-78
2023/04/30 06:41:11;;;;;;;20.83;14.13;;;;;;;11.70;54.76;93647.59;4978829;28;20137;-79
2023/04/30 06:43:36;;;;;;;19.38;13.73;;;;;;;11.86;54.46;93630.72;4979627;28;20527;-80
2023/04/30 06:46:05;;;;;;;23.90;13.38;;;;;;;12.22;53.16;93626.69;4981117;28;20042;-79
2023/04/30 06:48:31;;;;;;;18.65;13.52;;;;;;;11.84;54.66;93654.25;4974962;28;20034;-79
2023/04/30 06:50:57;;;;;;;15.35;12.52;;;;;;;11.73;53.74;93607.81;4977390;28;20053;-78
2023/04/30 06:53:22;;;;;;;22.98;12.85;;;;;;;12.21;53.16;93655.25;4970183;28;20034;-80
2023/04/30 06:55:48;;;;;;;17.77;12.40;;;;;;;12.50;51.50;93662.34;4968063;28;20026;-78
2023/04/30 06:58:13;;;;;;;23.17;14.55;;;;;;;12.76;51.46;93646.88;4979093;28;20089;-78
2023/04/30 07:00:39;;;;;;;22.58;13.95;;;;;;;12.89;52.28;93661.06;4976827;28;20042;-80
2023/04/30 07:03:04;;;;;;;16.63;13.13;;;;;;;12.11;52.77;93625.53;4972716;28;20169;-77
2023/04/30 07:05:30;;;;;;;19.92;13.73;;;;;;;12.10;53.48;93634.63;4988353;28;20092;-79
2023/04/30 07:07:57;;;;;;;22.40;12.85;;;;;;;12.40;53.20;93654.75;4973105;28;20057;-79
2023/04/30 07:10:22;;;;;;;22.38;14.88;;;;;;;12.93;51.24;93655.81;4973315;28;20085;-78
2023/04/30 07:12:48;;;;;;;21.15;13.93;;;;;;;13.13;50.13;93638.94;4975446;28;20505;-80
2023/04/30 07:15:13;;;;;;;23.20;13.30;;;;;;;13.28;50.46;93651.66;4975371;28;20038;-77
2023/04/30 07:17:40;;;;;;;16.92;13.35;;;;;;;13.38;50.63;93645.06;4977931;28;20539;-79
2023/04/30 07:20:07;;;;;;;29.17;14.52;;;;;;;13.53;49.73;93653.22;4975775;28;20054;-80
2023/04/30 07:22:32;;;;;;;22.25;14.15;;;;;;;13.50;50.46;93648.50;4976242;28;20022;-79
2023/04/30 07:24:59;;;;;;;21.50;13.32;;;;;;;13.52;49.35;93640.97;4955603;28;20039;-79
2023/04/30 07:27:25;;;;;;;30.63;12.88;;;;;;;13.79;49.37;93657.44;4954367;28;20042;-76
2023/04/30 07:29:50;;;;;;;24.35;13.38;;;;;;;13.71;50.13;93643.84;4954717;28;20047;-79
2023/04/30 07:32:16;;;;;;;13.95;9.77;;;;;;;13.95;47.64;93653.72;4956005;28;20043;-79
2023/04/30 07:34:41;;;;;;;13.60;10.20;;;;;;;14.04;48.00;93656.25;4954520;28;20109;-80
2023/04/30 07:37:08;;;;;;;20.08;10.73;;;;;;;13.91;47.30;93642.16;4976743;28;20505;-76
2023/04/30 07:39:35;;;;;;;16.13;8.43;;;;;;;14.08;47.53;93662.53;4973805;28;20038;-80
2023/04/30 07:42:02;;;;;;;17.77;8.95;;;;;;;14.16;47.06;93661.59;4973306;28;20503;-78
2023/04/30 07:44:27;;;;;;;17.10;7.18;;;;;;;14.17;47.07;93660.50;4973417;28;20038;-79
2023/04/30 07:46:53;;;;;;;12.27;7.45;;;;;;;14.03;46.78;93644.03;4975214;28;20027;-80
2023/04/30 07:49:18;;;;;;;11.63;8.10;;;;;;;14.11;46.90;93635.88;4974601;28;20034;-78
2023/04/30 07:51:44;;;;;;;20.15;9.38;;;;;;;14.36;46.66;93665.22;4976454;28;20038;-77
2023/04/30 07:54:10;;;;;;;17.95;9.23;;;;;;;14.27;47.73;93660.00;4974246;28;20121;-80
2023/04/30 07:56:35;;;;;;;17.40;10.18;;;;;;;14.29;47.38;93652.41;4974959;28;21206;-79
2023/04/30 07:59:00;;;;;;;12.77;8.70;;;;;;;14.39;46.98;93657.28;4975926;28;20113;-80
2023/04/30 08:01:26;;;;;;;19.27;7.85;;;;;;;14.40;46.32;93650.81;4984610;28;20229;-78
2023/04/30 08:03:51;;;;;;;15.57;8.43;;;;;;;14.41;46.61;93644.34;4984024;28;20348;-77
2023/04/30 08:06:18;;;;;;;9.68;6.03;;;;;;;14.36;46.95;93647.28;4979371;28;20299;-80
2023/04/30 08:08:43;;;;;;;10.73;5.15;;;;;;;14.45;45.64;93666.63;4969980;28;20845;-79
2023/04/30 08:11:09;;;;;;;8.27;5.45;;;;;;;14.40;45.33;93658.84;4973392;28;20125;-79
2023/04/30 08:13:35;;;;;;;6.57;4.95;;;;;;;14.28;45.63;93658.09;4975237;28;20618;-76
2023/04/30 08:16:02;;;;;;;6.53;4.63;;;;;;;14.20;46.51;93675.84;4973908;28;20040;-79
2023/04/30 08:18:28;;;;;;;7.00;4.25;;;;;;;14.25;45.56;93670.25;4975505;28;20467;-78
2023/04/30 08:20:54;;;;;;;8.57;4.68;;;;;;;14.07;45.56;93661.75;4971967;28;20034;-79
2023/04/30 08:23:19;;;;;;;5.57;4.00;;;;;;;14.16;46.06;93661.59;4972359;28;20100;-80
2023/04/30 08:25:45;;;;;;;8.85;5.03;;;;;;;14.36;46.05;93668.69;4972139;28;20030;-78
2023/04/30 08:28:10;;;;;;;8.23;4.85;;;;;;;14.30;46.43;93656.66;4975267;28;20026;-76
2023/04/30 08:30:36;;;;;;;7.07;4.50;;;;;;;14.23;45.82;93667.13;4970892;28;20201;-79
2023/04/30 08:33:01;;;;;;;7.30;5.43;;;;;;;14.25;45.71;93661.44;4971031;28;20069;-78
2023/04/30 08:35:28;;;;;;;8.40;4.80;;;;;;;14.25;46.38;93653.44;4972460;28;20057;-79
2023/04/30 08:37:54;;;;;;;6.68;4.03;;;;;;;14.29;45.86;93656.97;4968929;28;20033;-80
2023/04/30 08:40:20;;;;;;;5.10;4.03;;;;;;;14.22;44.16;93657.56;4964393;28;20864;-76
2023/04/30 08:43:07;;;;;;;7.25;4.20;;;;;;;14.31;45.11;93670.81;4971549;28;20073;-79
2023/04/30 08:45:34;;;;;;;5.90;3.85;;;;;;;14.25;45.25;93675.63;4973439;28;20065;-79
2023/04/30 08:48:00;;;;;;;7.55;5.13;;;;;;;14.12;44.58;93663.41;4969728;28;20034;-79
2023/04/30 08:50:26;;;;;;;10.30;4.90;;;;;;;14.23;45.90;93651.09;4971030;28;20176;-77
2023/04/30 08:52:52;;;;;;;6.13;4.22;;;;;;;14.42;43.71;93664.63;4978709;28;20025;-79
2023/04/30 08:55:17;;;;;;;6.72;4.30;;;;;;;14.45;44.60;93653.25;4982386;28;20381;-79
2023/04/30 08:57:42;;;;;;;9.45;5.45;;;;;;;14.57;44.81;93645.19;4976892;28;20141;-80
2023/04/30 09:00:08;;;;;;;9.88;5.07;;;;;;;14.83;44.72;93658.13;4979061;28;20157;-79
2023/04/30 09:02:38;;;;;;;14.25;5.15;;;;;;;13.96;44.56;93518.16;4972227;28;20046;-79
2023/04/30 09:05:10;;;;;;;8.45;4.57;;;;;;;14.83;43.01;93646.63;4985835;28;20042;-78
2023/04/30 09:07:37;;;;;;;8.00;4.55;;;;;;;14.77;43.22;93650.66;4981681;28;20045;-79
2023/04/30 09:10:03;;;;;;;8.55;4.60;;;;;;;14.63;44.25;93634.22;4969923;28;20280;-76
2023/04/30 09:12:29;;;;;;;12.85;4.75;;;;;;;14.71;43.54;93638.69;4977282;28;20501;-79
2023/04/30 09:15:03;;;;;;;6.20;4.43;;;;;;;14.84;43.68;93634.81;4976124;28;20045;-78
2023/04/30 09:17:29;;;;;;;6.80;4.00;;;;;;;14.72;42.96;93613.44;4977110;28;20169;-79
2023/04/30 09:20:08;;;;;;;4.93;4.40;;;;;;;14.91;42.64;93630.41;4979149;28;20211;-81
2023/04/30 09:22:35;;;;;;;5.15;4.18;;;;;;;14.96;43.00;93624.78;4981010;28;20022;-79
2023/04/30 09:25:01;;;;;;;7.57;4.88;;;;;;;15.04;42.08;93634.56;4972941;28;20038;-79
2023/04/30 09:27:26;;;;;;;4.70;4.25;;;;;;;15.04;44.10;93623.09;4978220;28;20033;-79
2023/04/30 09:29:52;;;;;;;6.90;4.22;;;;;;;15.13;41.92;93620.22;4976890;28;20039;-80
2023/04/30 09:32:18;;;;;;;9.10;4.90;;;;;;;15.28;41.97;93625.59;4970500;28;20035;-80
2023/04/30 09:34:43;;;;;;;5.88;4.38;;;;;;;15.11;41.58;93607.16;4976009;28;20026;-79
2023/04/30 09:37:10;;;;;;;4.65;4.25;;;;;;;15.42;41.88;93615.19;4977779;28;20410;-80
2023/04/30 09:39:54;;;;;;;6.47;4.22;;;;;;;15.54;41.02;93610.91;4975905;28;20042;-79
2023/04/30 09:42:19;;;;;;;4.63;3.60;;;;;;;15.30;40.98;93588.50;4975559;28;20038;-80
2023/04/30 09:44:45;;;;;;;4.93;4.53;;;;;;;15.37;41.56;93599.38;4976140;28;20054;-79
2023/04/30 09:47:19;;;;;;;5.18;4.32;;;;;;;15.54;41.41;93597.50;4977816;28;20039;-80
2023/04/30 09:49:50;;;;;;;6.85;4.75;;;;;;;15.64;41.67;93583.56;4966353;28;20784;-80
2023/04/30 09:52:17;;;;;;;6.97;4.50;;;;;;;15.79;41.21;93593.47;4976733;28;20070;-78
2023/04/30 09:54:44;;;;;;;4.93;4.20;;;;;;;15.98;40.99;93595.38;4973947;28;20045;-80
2023/04/30 09:57:13;;;;;;;8.30;4.32;;;;;;;15.58;41.65;93598.34;4976276;28;20031;-80
2023/04/30 09:59:44;;;;;;;4.53;4.13;;;;;;;15.29;41.82;93600.34;4974632;28;20042;-80
2023/04/30 10:02:12;;;;;;;4.63;4.05;;;;;;;15.00;41.93;93584.72;4986504;28;20500;-79
2023/04/30 10:04:41;;;;;;;6.60;3.95;;;;;;;15.61;42.30;93590.38;4975388;28;20033;-80
2023/04/30 10:07:16;;;;;;;5.38;4.85;;;;;;;15.94;41.29;93578.44;4979912;28;20046;-80
2023/04/30 10:09:56;;;;;;;6.55;4.43;;;;;;;16.03;41.49;93587.06;4982963;28;20034;-78
2023/04/30 10:12:35;;;;;;;4.30;3.90;;;;;;;16.08;39.55;93582.19;4976545;28;20548;-81
2023/04/30 10:15:12;;;;;;;4.57;3.97;;;;;;;16.01;39.51;93563.25;4976662;28;20138;-80
2023/04/30 10:17:42;;;;;;;4.35;3.90;;;;;;;16.16;39.71;93586.56;4974360;28;20572;-80
2023/04/30 10:20:09;;;;;;;4.32;3.58;;;;;;;16.24;39.08;93576.75;4976587;28;20062;-79
2023/04/30 10:22:35;;;;;;;5.82;3.67;;;;;;;16.08;39.31;93594.84;4978104;28;20030;-79
2023/04/30 10:25:05;;;;;;;5.05;3.40;;;;;;;15.93;39.20;93604.50;4978136;28;20039;-80
2023/04/30 10:27:32;;;;;;;4.28;3.17;;;;;;;15.63;39.56;93590.03;4977991;28;20034;-80
2023/04/30 10:29:58;;;;;;;7.32;4.22;;;;;;;15.49;41.75;93605.81;4973830;28;20303;-79
2023/04/30 10:32:30;;;;;;;17.27;5.10;;;;;;;14.94;42.19;93623.59;4977565;28;20129;-75
2023/04/30 10:35:17;;;;;;;14.88;5.45;;;;;;;14.35;48.09;93629.66;4973571;28;20058;-79
2023/04/30 10:37:47;;;;;;;9.32;5.03;;;;;;;14.32;51.52;93649.06;4972813;28;20117;-79
2023/04/30 10:40:13;;;;;;;8.57;5.88;;;;;;;13.83;52.03;93636.94;4978261;28;20433;-79
2023/04/30 10:42:45;;;;;;;6.72;5.03;;;;;;;14.14;52.61;93661.16;4976292;28;20034;-79
2023/04/30 10:45:11;;;;;;;12.68;7.32;;;;;;;14.26;53.51;93618.31;4978891;28;20045;-80
2023/04/30 10:47:38;;;;;;;17.15;11.65;;;;;;;14.62;52.10;93635.38;4978119;28;20589;-80
2023/04/30 10:50:07;;;;;;;13.32;7.65;;;;;;;14.75;52.96;93628.84;4979344;28;20038;-79
2023/04/30 10:52:32;;;;;;;7.95;6.20;;;;;;;14.65;53.96;93621.31;4975000;28;20022;-76
2023/04/30 10:54:58;;;;;;;6.10;5.50;;;;;;;14.98;52.86;93627.13;4977325;28;20598;-79
2023/04/30 10:57:28;;;;;;;5.78;5.20;;;;;;;15.12;51.51;93618.66;4978217;28;20057;-79
2023/04/30 11:00:06;;;;;;;6.00;4.60;;;;;;;15.22;48.83;93618.16;4979396;28;20049;-80
2023/04/30 11:02:39;;;;;;;5.25;4.28;;;;;;;15.24;49.79;93616.69;4969549;28;20050;-80
2023/04/30 11:05:10;;;;;;;9.10;5.00;;;;;;;15.39;47.92;93615.13;4977063;28;20043;-81
2023/04/30 11:07:36;;;;;;;4.43;3.40;;;;;;;15.44;47.62;93615.66;4975382;28;20034;-77
2023/04/30 11:10:02;;;;;;;8.38;4.10;;;;;;;15.55;46.59;93609.78;4978790;28;20034;-78
2023/04/30 11:12:28;;;;;;;5.78;3.92;;;;;;;15.48;45.64;93601.56;4982311;28;20042;-79
2023/04/30 11:15:40;;;;;;;5.50;3.40;;;;;;;15.31;45.39;93611.47;4980110;28;20038;-79
2023/04/30 11:18:07;;;;;;;3.47;3.17;;;;;;;15.62;43.04;93605.34;4978843;28;20065;-80
2023/04/30 11:20:32;;;;;;;5.15;3.70;;;;;;;15.68;43.05;93605.84;4977267;28;20052;-80
2023/04/30 11:23:21;;;;;;;4.15;3.67;;;;;;;15.68;43.79;93590.53;4977916;28;20023;-80
2023/04/30 11:25:47;;;;;;;4.68;4.05;;;;;;;15.77;42.48;93601.06;4978733;28;20022;-80
2023/04/30 11:28:48;;;;;;;4.72;3.63;;;;;;;15.71;42.88;93605.16;4978709;28;20088;-80